createdAt,value
2022-10-13T00:01:56.674Z,30.87
2022-10-13T00:04:23.848Z,30.17
2022-10-13T00:06:50.937Z,27.87
2022-10-13T00:09:18.079Z,26.77
2022-10-13T00:11:45.231Z,28.60
2022-10-13T00:14:12.327Z,28.93
2022-10-13T00:16:39.670Z,29.17
2022-10-13T00:19:06.791Z,29.87
2022-10-13T00:21:33.906Z,27.50
2022-10-13T00:24:00.993Z,28.23
2022-10-13T00:26:28.142Z,29.03
2022-10-13T00:28:55.830Z,27.03
2022-10-13T00:31:24.092Z,29.47
2022-10-13T00:33:51.839Z,29.67
2022-10-13T00:36:19.350Z,29.43
2022-10-13T00:38:46.491Z,28.37
2022-10-13T00:41:13.642Z,27.70
2022-10-13T00:43:53.449Z,26.83
2022-10-13T00:46:21.117Z,25.43
2022-10-13T00:48:48.290Z,26.80
2022-10-13T00:51:16.137Z,25.47
2022-10-13T00:53:43.247Z,26.33
2022-10-13T00:56:10.632Z,25.63
2022-10-13T00:58:37.814Z,26.03
2022-10-13T01:01:05.098Z,25.03
2022-10-13T01:03:32.218Z,23.97
2022-10-13T01:06:00.196Z,25.23
2022-10-13T01:08:27.337Z,23.53
2022-10-13T01:11:06.663Z,24.27
2022-10-13T01:13:52.508Z,25.07
2022-10-13T01:16:19.598Z,23.67
2022-10-13T01:18:47.847Z,20.80
2022-10-13T01:21:14.957Z,23.20
2022-10-13T01:23:47.833Z,23.60
2022-10-13T01:26:44.133Z,25.53
2022-10-13T01:29:18.752Z,28.53
2022-10-13T01:32:08.021Z,31.03
2022-10-13T01:34:37.011Z,30.93
2022-10-13T01:37:05.778Z,36.73
2022-10-13T01:39:35.922Z,31.47
2022-10-13T01:42:11.319Z,34.57
2022-10-13T01:44:39.290Z,32.83
2022-10-13T01:47:06.374Z,33.90
2022-10-13T01:49:34.749Z,31.97
2022-10-13T01:52:09.014Z,29.60
2022-10-13T01:54:36.138Z,27.87
2022-10-13T01:57:03.287Z,29.47
2022-10-13T01:59:30.651Z,29.63
2022-10-13T02:02:03.742Z,51.03
2022-10-13T02:04:43.112Z,101.77
2022-10-13T02:07:33.489Z,97.90
2022-10-13T02:10:00.744Z,93.17
2022-10-13T02:12:35.620Z,86.13
2022-10-13T02:15:02.919Z,74.57
2022-10-13T02:17:32.117Z,47.17
2022-10-13T02:19:59.195Z,46.33
2022-10-13T02:22:28.187Z,61.23
2022-10-13T02:24:55.308Z,64.03
2022-10-13T02:27:23.123Z,55.50
2022-10-13T02:29:53.770Z,48.43
2022-10-13T02:32:21.426Z,46.00
2022-10-13T02:34:48.759Z,54.53
2022-10-13T02:37:15.906Z,53.03
2022-10-13T02:39:43.069Z,57.83
2022-10-13T02:42:10.334Z,54.80
2022-10-13T02:44:37.485Z,47.50
2022-10-13T02:47:04.587Z,44.73
2022-10-13T02:49:31.710Z,50.20
2022-10-13T02:52:00.274Z,45.83
2022-10-13T02:54:27.381Z,47.30
2022-10-13T02:56:54.475Z,48.17
2022-10-13T02:59:21.679Z,47.60
2022-10-13T03:01:48.791Z,51.63
2022-10-13T03:04:15.950Z,47.73
2022-10-13T03:06:43.073Z,45.83
2022-10-13T03:09:10.167Z,43.47
2022-10-13T03:11:37.443Z,43.93
2022-10-13T03:14:04.587Z,45.53
2022-10-13T03:16:31.674Z,42.87
2022-10-13T03:18:58.787Z,43.47
2022-10-13T03:21:25.898Z,43.00
2022-10-13T03:23:53.018Z,43.90
2022-10-13T03:26:20.128Z,43.77
2022-10-13T03:28:50.701Z,41.20
2022-10-13T03:31:17.895Z,39.37
2022-10-13T03:33:45.173Z,49.90
2022-10-13T03:36:13.393Z,48.80
2022-10-13T03:38:40.575Z,44.73
2022-10-13T03:41:08.516Z,51.50
2022-10-13T03:43:35.761Z,46.50
2022-10-13T03:46:03.028Z,47.20
2022-10-13T03:48:30.600Z,48.97
2022-10-13T03:50:58.158Z,45.80
2022-10-13T03:53:25.541Z,47.20
2022-10-13T03:55:53.621Z,47.13
2022-10-13T03:58:20.793Z,52.93
2022-10-13T04:00:48.241Z,55.53
2022-10-13T04:03:15.361Z,116.57
2022-10-13T04:05:42.524Z,78.23
2022-10-13T04:08:09.732Z,67.83
2022-10-13T04:10:36.877Z,76.17
2022-10-13T04:13:04.023Z,66.97
2022-10-13T04:15:31.128Z,81.83
2022-10-13T04:17:58.258Z,95.67
2022-10-13T04:20:25.401Z,102.07
2022-10-13T04:22:52.496Z,90.47
2022-10-13T04:25:19.590Z,84.97
2022-10-13T04:27:48.237Z,84.43
2022-10-13T04:30:15.410Z,89.90
2022-10-13T04:32:42.511Z,78.47
2022-10-13T04:35:09.692Z,97.07
2022-10-13T04:37:37.524Z,182.33
2022-10-13T04:40:07.127Z,193.33
2022-10-13T04:42:34.649Z,173.37
2022-10-13T04:45:01.766Z,190.43
2022-10-13T04:47:31.410Z,154.43
2022-10-13T04:50:00.611Z,138.30
2022-10-13T04:52:27.703Z,124.70
2022-10-13T04:54:54.786Z,84.43
2022-10-13T04:57:21.898Z,67.40
2022-10-13T04:59:48.980Z,74.70
2022-10-13T05:02:16.088Z,83.80
2022-10-13T05:04:43.330Z,60.80
2022-10-13T05:07:18.031Z,63.33
2022-10-13T05:09:45.722Z,58.25
2022-10-13T05:12:12.881Z,59.13
2022-10-13T05:14:39.975Z,71.53
2022-10-13T05:17:07.126Z,65.37
2022-10-13T05:19:34.233Z,71.63
2022-10-13T05:22:01.422Z,57.83
2022-10-13T05:24:38.836Z,48.53
2022-10-13T05:27:12.895Z,50.60
2022-10-13T05:29:40.167Z,51.53
2022-10-13T05:32:07.398Z,51.73
2022-10-13T05:34:34.535Z,51.47
2022-10-13T05:37:01.718Z,52.00
2022-10-13T05:39:28.842Z,53.07
2022-10-13T05:41:55.971Z,51.27
2022-10-13T05:44:24.257Z,51.33
2022-10-13T05:46:51.356Z,52.27
2022-10-13T05:49:18.496Z,47.80
2022-10-13T05:51:46.830Z,55.40
2022-10-13T05:54:18.329Z,60.07
2022-10-13T05:56:46.788Z,67.17
2022-10-13T05:59:14.431Z,66.97
2022-10-13T06:01:41.982Z,63.03
2022-10-13T06:04:11.301Z,62.07
2022-10-13T06:06:38.456Z,60.53
2022-10-13T06:09:05.547Z,64.57
2022-10-13T06:11:32.671Z,65.67
2022-10-13T06:13:59.808Z,60.23
2022-10-13T06:16:27.068Z,66.33
2022-10-13T06:18:54.205Z,58.83
2022-10-13T06:21:21.493Z,57.23
2022-10-13T06:23:48.632Z,59.90
2022-10-13T06:26:15.795Z,57.73
2022-10-13T06:28:46.334Z,59.53
2022-10-13T06:31:16.914Z,57.83
2022-10-13T06:33:44.888Z,58.73
2022-10-13T06:36:11.975Z,57.63
2022-10-13T06:38:39.111Z,53.73
2022-10-13T06:41:06.435Z,51.03
2022-10-13T06:43:39.857Z,59.73
2022-10-13T06:46:07.224Z,52.20
2022-10-13T06:48:34.315Z,47.33
2022-10-13T06:51:10.953Z,45.73
2022-10-13T06:53:38.056Z,43.47
2022-10-13T06:56:05.869Z,43.80
2022-10-13T06:58:33.005Z,44.87
2022-10-13T07:01:00.319Z,45.67
2022-10-13T07:03:27.523Z,41.90
2022-10-13T07:05:54.740Z,40.83
2022-10-13T07:08:21.833Z,38.70
2022-10-13T07:10:48.988Z,74.63
2022-10-13T07:13:17.616Z,48.17
2022-10-13T07:15:44.729Z,32.13
2022-10-13T07:18:11.828Z,28.03
2022-10-13T07:20:38.951Z,26.23
2022-10-13T07:23:06.042Z,29.85
2022-10-13T07:25:33.140Z,29.00
2022-10-13T07:28:00.592Z,28.42
2022-10-13T07:30:27.705Z,28.93
2022-10-13T07:32:54.859Z,27.23
2022-10-13T07:35:24.792Z,27.10
2022-10-13T07:37:55.316Z,26.48
2022-10-13T07:40:22.494Z,25.73
2022-10-13T07:42:49.610Z,25.42
2022-10-13T07:45:17.002Z,24.63
2022-10-13T07:47:44.141Z,24.98
2022-10-13T07:50:11.829Z,26.15
2022-10-13T07:52:38.974Z,25.40
2022-10-13T07:55:06.406Z,23.33
2022-10-13T07:57:33.494Z,16.42
2022-10-13T08:00:00.586Z,19.83
2022-10-13T08:02:27.862Z,23.90
2022-10-13T08:04:54.950Z,22.25
2022-10-13T08:07:22.627Z,20.63
2022-10-13T08:09:50.043Z,19.10
2022-10-13T08:12:17.434Z,17.60
2022-10-13T08:14:44.932Z,16.50
2022-10-13T08:17:12.171Z,14.20
2022-10-13T08:19:39.288Z,19.52
2022-10-13T08:22:09.639Z,19.52
2022-10-13T08:24:36.998Z,20.02
2022-10-13T08:27:04.170Z,19.83
2022-10-13T08:29:31.343Z,16.58
2022-10-13T08:31:58.501Z,17.67
2022-10-13T08:34:25.691Z,15.10
2022-10-13T08:36:54.300Z,16.60
2022-10-13T08:39:22.182Z,16.83
2022-10-13T08:41:49.291Z,15.90
2022-10-13T08:47:09.126Z,15.82
2022-10-13T08:49:36.213Z,9.27
2022-10-13T08:52:06.258Z,9.50
2022-10-13T08:54:33.422Z,7.38
2022-10-13T08:59:28.562Z,8.38
2022-10-13T09:01:55.709Z,8.80
2022-10-13T09:04:39.308Z,7.90
2022-10-13T09:07:07.575Z,7.97
2022-10-13T09:09:34.725Z,6.15
2022-10-13T09:12:02.177Z,6.53
2022-10-13T09:14:38.417Z,6.95
2022-10-13T09:17:26.341Z,6.95
2022-10-13T09:20:02.730Z,6.70
2022-10-13T09:22:52.670Z,7.00
2022-10-13T09:25:20.875Z,6.38
2022-10-13T09:28:00.964Z,7.43
2022-10-13T09:30:28.135Z,6.75
2022-10-13T09:33:13.446Z,7.57
2022-10-13T09:35:41.660Z,9.90
2022-10-13T09:38:15.705Z,10.02
2022-10-13T09:43:29.305Z,7.32
2022-10-13T09:45:56.713Z,8.88
2022-10-13T09:48:25.123Z,6.60
2022-10-13T09:50:53.078Z,5.97
2022-10-13T09:53:32.107Z,5.95
2022-10-13T09:56:09.305Z,6.13
2022-10-13T09:58:40.902Z,5.72
2022-10-13T10:01:09.745Z,5.55
2022-10-13T10:03:37.901Z,6.68
2022-10-13T10:06:06.683Z,6.25
2022-10-13T10:09:07.657Z,5.88
2022-10-13T10:11:35.772Z,6.60
2022-10-13T10:14:12.926Z,6.43
2022-10-13T10:16:42.158Z,6.85
2022-10-13T10:19:18.489Z,6.38
2022-10-13T10:22:04.278Z,6.55
2022-10-13T10:24:36.699Z,6.57
2022-10-13T10:27:27.254Z,8.43
2022-10-13T10:30:07.175Z,9.55
2022-10-13T10:32:52.932Z,7.07
2022-10-13T10:35:28.096Z,6.93
2022-10-13T10:38:14.864Z,8.02
2022-10-13T10:40:50.908Z,10.88
2022-10-13T10:43:41.159Z,7.03
2022-10-13T10:46:13.586Z,8.10
2022-10-13T10:48:40.759Z,13.40
2022-10-13T10:51:08.881Z,9.45
2022-10-13T10:53:49.249Z,7.32
2022-10-13T10:56:39.527Z,7.03
2022-10-13T10:59:12.598Z,7.75
2022-10-13T11:01:57.981Z,6.85
2022-10-13T11:04:35.610Z,8.65
2022-10-13T11:07:03.395Z,7.22
2022-10-13T11:09:42.477Z,7.95
2022-10-13T11:12:21.979Z,7.63
2022-10-13T11:14:55.350Z,7.20
2022-10-13T11:17:25.329Z,8.07
2022-10-13T11:19:52.814Z,7.80
2022-10-13T11:22:21.449Z,7.57
2022-10-13T11:24:52.837Z,7.55
2022-10-13T11:27:20.908Z,7.70
2022-10-13T11:29:55.023Z,8.50
2022-10-13T11:32:41.361Z,8.55
2022-10-13T11:35:08.597Z,8.55
2022-10-13T11:38:05.868Z,8.52
2022-10-13T11:40:46.010Z,8.65
2022-10-13T11:43:18.981Z,8.88
2022-10-13T11:45:52.462Z,9.18
2022-10-13T11:48:34.839Z,9.38
2022-10-13T11:51:09.499Z,8.98
2022-10-13T11:53:41.664Z,9.95
2022-10-13T11:56:18.984Z,10.25
2022-10-13T11:58:46.119Z,9.50
2022-10-13T12:01:13.748Z,10.68
2022-10-13T12:03:42.032Z,9.80
2022-10-13T12:06:33.109Z,9.32
2022-10-13T12:09:04.982Z,9.15
2022-10-13T12:11:36.922Z,9.35
2022-10-13T12:14:04.261Z,9.38
2022-10-13T12:16:31.426Z,9.57
2022-10-13T12:19:11.088Z,9.35
2022-10-13T12:21:48.587Z,10.10
2022-10-13T12:24:15.697Z,9.35
2022-10-13T12:26:42.851Z,10.05
2022-10-13T12:29:13.383Z,9.95
2022-10-13T12:31:47.210Z,9.27
2022-10-13T12:34:17.363Z,9.95
2022-10-13T12:36:44.508Z,9.70
2022-10-13T12:39:12.996Z,35.33
2022-10-13T12:41:44.107Z,18.70
2022-10-13T12:44:13.519Z,9.85
2022-10-13T12:46:46.745Z,10.77
2022-10-13T12:49:15.202Z,10.15
2022-10-13T12:51:42.399Z,10.90
2022-10-13T12:54:10.329Z,12.52
2022-10-13T12:56:37.432Z,10.05
2022-10-13T12:59:04.511Z,9.27
2022-10-13T13:01:32.370Z,11.02
2022-10-13T13:04:01.037Z,13.98
2022-10-13T13:06:35.303Z,15.35
2022-10-13T13:09:08.494Z,11.95
2022-10-13T13:11:36.621Z,11.65
2022-10-13T13:14:22.445Z,11.20
2022-10-13T13:17:04.980Z,10.65
2022-10-13T13:19:32.986Z,10.43
2022-10-13T13:22:00.138Z,10.02
2022-10-13T13:24:35.896Z,11.00
2022-10-13T13:27:18.727Z,10.07
2022-10-13T13:29:46.081Z,9.82
2022-10-13T13:32:13.970Z,10.40
2022-10-13T13:34:41.277Z,11.15
2022-10-13T13:37:21.675Z,11.38
2022-10-13T13:39:48.935Z,10.15
2022-10-13T13:42:16.089Z,11.95
2022-10-13T13:44:43.245Z,10.07
2022-10-13T13:47:17.166Z,10.63
2022-10-13T13:49:44.504Z,10.50
2022-10-13T13:52:11.605Z,9.15
2022-10-13T13:54:38.762Z,10.57
2022-10-13T13:57:05.916Z,10.63
2022-10-13T13:59:33.065Z,13.55
2022-10-13T14:02:00.248Z,11.30
2022-10-13T14:04:27.454Z,13.77
2022-10-13T14:06:54.564Z,13.65
2022-10-13T14:09:21.674Z,11.10
2022-10-13T14:11:48.794Z,9.88
2022-10-13T14:14:15.951Z,10.30
2022-10-13T14:16:43.047Z,11.00
2022-10-13T14:19:10.591Z,11.57
2022-10-13T14:21:37.920Z,11.30
2022-10-13T14:24:05.315Z,13.70
2022-10-13T14:26:32.452Z,13.60
2022-10-13T14:28:59.570Z,17.95
2022-10-13T14:31:26.783Z,12.32
2022-10-13T14:33:54.535Z,11.35
2022-10-13T14:36:21.735Z,10.65
2022-10-13T14:38:48.997Z,9.93
2022-10-13T14:41:17.149Z,9.90
2022-10-13T14:43:44.392Z,9.88
2022-10-13T14:46:11.518Z,10.27
2022-10-13T14:48:38.647Z,11.23
2022-10-13T14:51:06.456Z,11.30
2022-10-13T14:53:34.411Z,9.90
2022-10-13T14:56:01.563Z,11.80
2022-10-13T14:58:29.238Z,10.85
2022-10-13T15:00:56.415Z,10.75
2022-10-13T15:03:24.143Z,10.30
2022-10-13T15:05:51.251Z,10.10
2022-10-13T15:08:18.361Z,10.68
2022-10-13T15:10:45.553Z,12.43
2022-10-13T15:13:12.763Z,13.60
2022-10-13T15:15:46.462Z,11.65
2022-10-13T15:18:13.612Z,10.88
2022-10-13T15:20:45.367Z,11.70
2022-10-13T15:23:12.828Z,11.30
2022-10-13T15:25:40.812Z,12.95
2022-10-13T15:28:08.523Z,13.05
2022-10-13T15:30:35.660Z,12.90
2022-10-13T15:33:02.806Z,14.18
2022-10-13T15:35:31.114Z,14.70
2022-10-13T15:37:58.260Z,18.30
2022-10-13T15:40:25.450Z,14.38
2022-10-13T15:42:53.649Z,18.75
2022-10-13T15:45:20.784Z,53.85
2022-10-13T15:47:47.879Z,45.78
2022-10-13T15:50:15.103Z,29.90
2022-10-13T15:52:42.392Z,25.60
2022-10-13T15:55:10.070Z,29.73
2022-10-13T15:57:37.158Z,30.10
2022-10-13T16:00:05.530Z,13.50
2022-10-13T16:02:32.777Z,14.55
2022-10-13T16:05:04.821Z,16.20
2022-10-13T16:07:32.457Z,22.73
2022-10-13T16:09:59.574Z,19.30
2022-10-13T16:12:26.742Z,18.60
2022-10-13T16:14:53.886Z,27.95
2022-10-13T16:17:21.013Z,36.80
2022-10-13T16:19:48.129Z,38.38
2022-10-13T16:22:15.282Z,39.38
2022-10-13T16:24:42.389Z,51.58
2022-10-13T16:27:09.510Z,56.90
2022-10-13T16:29:36.647Z,85.05
2022-10-13T16:32:03.743Z,75.60
2022-10-13T16:34:30.905Z,72.00
2022-10-13T16:36:58.112Z,62.47
2022-10-13T16:39:26.073Z,45.88
2022-10-13T16:41:53.331Z,66.82
2022-10-13T16:44:20.472Z,67.47
2022-10-13T16:46:49.638Z,68.05
2022-10-13T16:49:16.865Z,63.95
2022-10-13T16:51:43.983Z,73.20
2022-10-13T16:54:11.090Z,68.30
2022-10-13T16:56:38.237Z,53.95
2022-10-13T16:59:05.989Z,56.92
2022-10-13T17:01:33.259Z,57.85
2022-10-13T17:04:00.453Z,51.67
2022-10-13T17:06:28.111Z,50.90
2022-10-13T17:08:55.640Z,53.53
2022-10-13T17:11:24.348Z,75.25
2022-10-13T17:13:51.594Z,49.40
2022-10-13T17:16:18.735Z,43.45
2022-10-13T17:18:45.921Z,47.75
2022-10-13T17:21:13.811Z,50.80
2022-10-13T17:23:44.623Z,54.00
2022-10-13T17:26:14.838Z,73.57
2022-10-13T17:28:42.109Z,79.35
2022-10-13T17:31:10.083Z,72.55
2022-10-13T17:33:37.646Z,64.00
2022-10-13T17:36:32.211Z,69.43
2022-10-13T17:39:02.613Z,75.78
2022-10-13T17:41:29.691Z,88.32
2022-10-13T17:43:56.776Z,67.60
2022-10-13T17:46:36.124Z,53.53
2022-10-13T17:49:04.868Z,53.75
2022-10-13T17:51:31.970Z,87.95
2022-10-13T17:53:59.462Z,90.18
2022-10-13T17:56:26.621Z,88.68
2022-10-13T17:58:53.787Z,62.38
2022-10-13T18:01:21.999Z,59.03
2022-10-13T18:03:50.112Z,74.35
2022-10-13T18:06:17.396Z,71.93
2022-10-13T18:08:44.510Z,73.20
2022-10-13T18:11:12.635Z,75.28
2022-10-13T18:13:39.743Z,74.72
2022-10-13T18:16:10.364Z,70.75
2022-10-13T18:18:38.000Z,71.20
2022-10-13T18:21:05.872Z,66.15
2022-10-13T18:23:33.340Z,66.13
2022-10-13T18:26:01.688Z,67.85
2022-10-13T18:28:32.409Z,62.00
2022-10-13T18:31:12.631Z,71.65
2022-10-13T18:33:41.367Z,78.95
2022-10-13T18:36:28.236Z,74.82
2022-10-13T18:38:55.738Z,74.15
2022-10-13T18:41:23.511Z,67.65
2022-10-13T18:43:50.787Z,69.55
2022-10-13T18:46:17.895Z,72.80
2022-10-13T18:48:45.016Z,67.57
2022-10-13T18:51:13.575Z,68.38
2022-10-13T18:53:41.635Z,67.55
2022-10-13T18:56:09.847Z,76.80
2022-10-13T18:58:36.951Z,73.93
2022-10-13T19:01:05.104Z,72.10
2022-10-13T19:03:32.676Z,73.65
2022-10-13T19:05:59.755Z,79.43
2022-10-13T19:08:27.126Z,134.10
2022-10-13T19:10:54.211Z,134.00
2022-10-13T19:13:21.806Z,119.20
2022-10-13T19:15:49.430Z,105.18
2022-10-13T19:18:16.654Z,90.32
2022-10-13T19:20:44.303Z,90.18
2022-10-13T19:23:14.987Z,105.68
2022-10-13T19:25:42.785Z,118.20
2022-10-13T19:28:09.872Z,115.97
2022-10-13T19:30:37.054Z,129.73
2022-10-13T19:33:04.175Z,133.63
2022-10-13T19:35:31.266Z,122.32
2022-10-13T19:37:58.365Z,118.97
2022-10-13T19:40:25.447Z,112.55
2022-10-13T19:42:52.521Z,118.30
2022-10-13T19:45:19.647Z,114.63
2022-10-13T19:47:46.733Z,105.40
2022-10-13T19:50:14.094Z,95.00
2022-10-13T19:52:42.192Z,97.63
2022-10-13T19:55:09.534Z,86.35
2022-10-13T19:57:36.625Z,76.60
2022-10-13T20:00:04.248Z,78.05
2022-10-13T20:02:31.390Z,81.10
2022-10-13T20:04:58.488Z,70.40
2022-10-13T20:07:25.625Z,73.70
2022-10-13T20:09:53.073Z,78.85
2022-10-13T20:12:20.147Z,105.65
2022-10-13T20:14:47.245Z,106.40
2022-10-13T20:17:14.325Z,92.03
2022-10-13T20:19:41.408Z,83.72
2022-10-13T20:22:08.506Z,98.07
2022-10-13T20:24:35.575Z,97.20
2022-10-13T20:27:02.854Z,104.82
2022-10-13T20:29:30.118Z,104.30
2022-10-13T20:31:57.205Z,97.65
2022-10-13T20:34:24.337Z,93.65
2022-10-13T20:36:51.615Z,99.35
2022-10-13T20:39:18.743Z,109.13
2022-10-13T20:41:45.831Z,108.13
2022-10-13T20:44:13.000Z,114.95
2022-10-13T20:46:40.089Z,117.72
2022-10-13T20:49:11.986Z,115.05
2022-10-13T20:51:40.040Z,131.20
2022-10-13T20:54:07.705Z,127.40
2022-10-13T20:56:34.791Z,132.23
2022-10-13T20:59:03.081Z,130.45
2022-10-13T21:01:30.174Z,122.00
2022-10-13T21:03:57.286Z,114.20
2022-10-13T21:06:24.777Z,110.22
2022-10-13T21:08:52.117Z,91.57
2022-10-13T21:11:20.274Z,80.00
2022-10-13T21:13:47.481Z,84.72
2022-10-13T21:16:18.319Z,74.63
2022-10-13T21:18:48.071Z,72.43
2022-10-13T21:21:15.630Z,72.25
2022-10-13T21:23:43.364Z,66.90
2022-10-13T21:26:10.522Z,61.72
2022-10-13T21:28:38.319Z,77.78
2022-10-13T21:31:06.489Z,85.72
2022-10-13T21:33:35.759Z,99.65
2022-10-13T21:36:06.073Z,112.43
2022-10-13T21:38:33.214Z,105.72
2022-10-13T21:41:00.347Z,90.38
2022-10-13T21:43:27.475Z,98.07
2022-10-13T21:45:54.577Z,98.95
2022-10-13T21:48:21.710Z,101.80
2022-10-13T21:50:48.799Z,91.38
2022-10-13T21:53:15.868Z,91.80
2022-10-13T21:55:43.066Z,95.55
2022-10-13T21:58:10.163Z,90.70
2022-10-13T22:00:37.272Z,103.45
2022-10-13T22:03:04.535Z,115.40
2022-10-13T22:05:31.693Z,111.13
2022-10-13T22:07:58.832Z,118.15
2022-10-13T22:10:26.013Z,119.28
2022-10-13T22:12:53.157Z,106.68
2022-10-13T22:15:20.317Z,96.90
2022-10-13T22:17:47.535Z,121.22
2022-10-13T22:20:14.681Z,133.10
2022-10-13T22:22:41.827Z,151.23
2022-10-13T22:25:09.295Z,163.20
2022-10-13T22:27:36.439Z,149.50
2022-10-13T22:30:03.708Z,106.03
2022-10-13T22:32:30.942Z,89.97
2022-10-13T22:34:58.086Z,77.18
2022-10-13T22:37:25.221Z,68.28
2022-10-13T22:39:52.395Z,58.03
2022-10-13T22:42:21.305Z,55.78
2022-10-13T22:44:48.498Z,60.58
2022-10-13T22:47:15.696Z,92.40
2022-10-13T22:49:42.850Z,96.18
2022-10-13T22:52:10.076Z,109.05
2022-10-13T22:54:37.253Z,106.70
2022-10-13T22:57:04.426Z,92.03
2022-10-13T22:59:31.582Z,80.70
2022-10-13T23:01:58.768Z,66.65
2022-10-13T23:04:26.005Z,85.13
2022-10-13T23:06:53.150Z,87.75
2022-10-13T23:09:20.358Z,87.95
2022-10-13T23:11:47.519Z,92.05
2022-10-13T23:14:14.724Z,86.38
2022-10-13T23:16:41.890Z,85.13
2022-10-13T23:19:09.074Z,82.95
2022-10-13T23:21:36.234Z,89.75
2022-10-13T23:24:04.288Z,81.05
2022-10-13T23:26:31.465Z,81.05
2022-10-13T23:28:58.813Z,79.50
2022-10-13T23:31:26.577Z,74.38
2022-10-13T23:33:53.853Z,77.45
2022-10-13T23:36:21.758Z,61.30
2022-10-13T23:38:49.108Z,61.00
2022-10-13T23:41:16.456Z,63.43
2022-10-13T23:43:43.710Z,63.08
2022-10-13T23:46:11.072Z,61.00
2022-10-13T23:48:38.504Z,54.00
2022-10-13T23:51:06.521Z,53.23
2022-10-13T23:53:37.172Z,60.27
2022-10-13T23:56:04.954Z,60.78
2022-10-13T23:58:32.324Z,46.80
